sensor_id;sensor_type;location;lat;lon;timestamp;temperature;humidity
827;DHT22;395;48.132;11.608;2023-04-21T00:01:16;9.80;8.20
827;DHT22;395;48.132;11.608;2023-04-21T00:03:43;9.80;8.60
827;DHT22;395;48.132;11.608;2023-04-21T00:06:08;9.70;7.80
827;DHT22;395;48.132;11.608;2023-04-21T00:08:35;9.70;8.00
827;DHT22;395;48.132;11.608;2023-04-21T00:11:07;9.70;8.10
827;DHT22;395;48.132;11.608;2023-04-21T00:13:36;9.70;7.80
827;DHT22;395;48.132;11.608;2023-04-21T00:16:03;9.70;7.80
827;DHT22;395;48.132;11.608;2023-04-21T00:18:29;9.70;8.00
827;DHT22;395;48.132;11.608;2023-04-21T00:20:54;9.70;8.10
827;DHT22;395;48.132;11.608;2023-04-21T00:23:20;9.70;8.10
827;DHT22;395;48.132;11.608;2023-04-21T00:25:46;9.70;8.00
827;DHT22;395;48.132;11.608;2023-04-21T00:28:12;9.70;8.10
827;DHT22;395;48.132;11.608;2023-04-21T00:30:37;9.60;8.00
827;DHT22;395;48.132;11.608;2023-04-21T00:33:03;9.70;8.10
827;DHT22;395;48.132;11.608;2023-04-21T00:35:29;9.70;8.60
827;DHT22;395;48.132;11.608;2023-04-21T00:37:55;9.70;8.60
827;DHT22;395;48.132;11.608;2023-04-21T00:40:20;9.70;9.10
827;DHT22;395;48.132;11.608;2023-04-21T00:42:46;9.70;8.80
827;DHT22;395;48.132;11.608;2023-04-21T00:45:12;9.80;8.90
827;DHT22;395;48.132;11.608;2023-04-21T00:47:40;9.80;9.00
827;DHT22;395;48.132;11.608;2023-04-21T00:50:05;9.70;8.00
827;DHT22;395;48.132;11.608;2023-04-21T00:52:33;9.70;8.30
827;DHT22;395;48.132;11.608;2023-04-21T00:54:59;9.70;8.70
827;DHT22;395;48.132;11.608;2023-04-21T00:57:26;9.70;8.60
827;DHT22;395;48.132;11.608;2023-04-21T00:59:53;9.70;8.70
827;DHT22;395;48.132;11.608;2023-04-21T01:02:19;9.80;8.70
827;DHT22;395;48.132;11.608;2023-04-21T01:04:45;9.70;8.50
827;DHT22;395;48.132;11.608;2023-04-21T01:07:11;9.80;8.20
827;DHT22;395;48.132;11.608;2023-04-21T01:09:37;9.70;8.00
827;DHT22;395;48.132;11.608;2023-04-21T01:12:05;9.70;7.90
827;DHT22;395;48.132;11.608;2023-04-21T01:14:31;9.70;7.90
827;DHT22;395;48.132;11.608;2023-04-21T01:16:57;9.70;7.90
827;DHT22;395;48.132;11.608;2023-04-21T01:19:23;9.70;7.90
827;DHT22;395;48.132;11.608;2023-04-21T01:21:50;9.70;7.90
827;DHT22;395;48.132;11.608;2023-04-21T01:24:23;9.70;8.30
827;DHT22;395;48.132;11.608;2023-04-21T01:26:49;9.70;8.30
827;DHT22;395;48.132;11.608;2023-04-21T01:29:16;9.70;8.30
827;DHT22;395;48.132;11.608;2023-04-21T01:31:42;9.70;8.30
827;DHT22;395;48.132;11.608;2023-04-21T01:34:10;9.70;8.30
827;DHT22;395;48.132;11.608;2023-04-21T01:36:35;9.70;8.20
827;DHT22;395;48.132;11.608;2023-04-21T01:39:02;9.70;8.20
827;DHT22;395;48.132;11.608;2023-04-21T01:41:28;9.70;7.90
827;DHT22;395;48.132;11.608;2023-04-21T01:43:54;9.70;7.80
827;DHT22;395;48.132;11.608;2023-04-21T01:46:19;9.70;7.80
827;DHT22;395;48.132;11.608;2023-04-21T01:48:45;9.70;8.00
827;DHT22;395;48.132;11.608;2023-04-21T01:51:11;9.70;8.00
827;DHT22;395;48.132;11.608;2023-04-21T01:53:37;9.70;8.00
827;DHT22;395;48.132;11.608;2023-04-21T01:56:02;9.70;8.00
827;DHT22;395;48.132;11.608;2023-04-21T01:58:28;9.70;8.00
827;DHT22;395;48.132;11.608;2023-04-21T02:00:54;9.70;8.10
827;DHT22;395;48.132;11.608;2023-04-21T02:03:19;9.70;8.10
827;DHT22;395;48.132;11.608;2023-04-21T02:05:45;9.70;8.20
827;DHT22;395;48.132;11.608;2023-04-21T02:08:11;9.70;8.10
827;DHT22;395;48.132;11.608;2023-04-21T02:10:36;9.70;8.00
827;DHT22;395;48.132;11.608;2023-04-21T02:13:02;9.70;7.90
827;DHT22;395;48.132;11.608;2023-04-21T02:15:28;9.70;7.90
827;DHT22;395;48.132;11.608;2023-04-21T02:17:53;9.70;8.10
827;DHT22;395;48.132;11.608;2023-04-21T02:20:19;9.70;8.10
827;DHT22;395;48.132;11.608;2023-04-21T02:22:45;9.70;8.10
827;DHT22;395;48.132;11.608;2023-04-21T02:25:10;9.80;8.10
827;DHT22;395;48.132;11.608;2023-04-21T02:27:36;9.70;8.10
827;DHT22;395;48.132;11.608;2023-04-21T02:30:01;9.70;8.20
827;DHT22;395;48.132;11.608;2023-04-21T02:32:28;9.70;8.30
827;DHT22;395;48.132;11.608;2023-04-21T02:34:53;9.80;8.40
827;DHT22;395;48.132;11.608;2023-04-21T02:37:19;9.70;8.30
827;DHT22;395;48.132;11.608;2023-04-21T02:39:45;9.70;8.30
827;DHT22;395;48.132;11.608;2023-04-21T02:42:11;9.70;8.30
827;DHT22;395;48.132;11.608;2023-04-21T02:44:37;9.70;8.30
827;DHT22;395;48.132;11.608;2023-04-21T02:47:03;9.80;8.40
827;DHT22;395;48.132;11.608;2023-04-21T02:49:28;9.70;8.50
827;DHT22;395;48.132;11.608;2023-04-21T02:51:54;9.70;8.40
827;DHT22;395;48.132;11.608;2023-04-21T02:54:20;9.70;8.30
827;DHT22;395;48.132;11.608;2023-04-21T02:56:45;9.70;8.30
827;DHT22;395;48.132;11.608;2023-04-21T02:59:11;9.70;8.30
827;DHT22;395;48.132;11.608;2023-04-21T03:01:41;9.70;8.40
827;DHT22;395;48.132;11.608;2023-04-21T03:04:07;9.70;8.40
827;DHT22;395;48.132;11.608;2023-04-21T03:06:33;9.70;8.50
827;DHT22;395;48.132;11.608;2023-04-21T03:08:58;9.80;8.50
827;DHT22;395;48.132;11.608;2023-04-21T03:11:24;9.70;8.50
827;DHT22;395;48.132;11.608;2023-04-21T03:13:50;9.70;8.50
827;DHT22;395;48.132;11.608;2023-04-21T03:16:15;9.70;8.60
827;DHT22;395;48.132;11.608;2023-04-21T03:18:41;9.70;8.60
827;DHT22;395;48.132;11.608;2023-04-21T03:21:07;9.70;8.60
827;DHT22;395;48.132;11.608;2023-04-21T03:23:32;9.70;8.70
827;DHT22;395;48.132;11.608;2023-04-21T03:25:58;9.70;8.80
827;DHT22;395;48.132;11.608;2023-04-21T03:28:24;9.70;8.70
827;DHT22;395;48.132;11.608;2023-04-21T03:30:49;9.70;8.70
827;DHT22;395;48.132;11.608;2023-04-21T03:33:15;9.70;8.70
827;DHT22;395;48.132;11.608;2023-04-21T03:35:40;9.80;8.70
827;DHT22;395;48.132;11.608;2023-04-21T03:38:06;9.70;8.50
827;DHT22;395;48.132;11.608;2023-04-21T03:40:32;9.70;8.30
827;DHT22;395;48.132;11.608;2023-04-21T03:42:57;9.70;8.10
827;DHT22;395;48.132;11.608;2023-04-21T03:45:23;9.70;8.00
827;DHT22;395;48.132;11.608;2023-04-21T03:47:52;9.70;7.90
827;DHT22;395;48.132;11.608;2023-04-21T03:50:19;9.60;7.80
827;DHT22;395;48.132;11.608;2023-04-21T03:52:45;9.60;7.80
827;DHT22;395;48.132;11.608;2023-04-21T03:55:10;9.60;7.70
827;DHT22;395;48.132;11.608;2023-04-21T03:57:40;9.60;7.70
827;DHT22;395;48.132;11.608;2023-04-21T04:00:07;9.60;7.70
827;DHT22;395;48.132;11.608;2023-04-21T04:02:36;9.60;7.90
827;DHT22;395;48.132;11.608;2023-04-21T04:05:05;9.60;8.00
827;DHT22;395;48.132;11.608;2023-04-21T04:07:31;9.60;8.00
827;DHT22;395;48.132;11.608;2023-04-21T04:09:57;9.60;8.10
827;DHT22;395;48.132;11.608;2023-04-21T04:12:23;9.60;8.10
827;DHT22;395;48.132;11.608;2023-04-21T04:14:48;9.60;8.10
827;DHT22;395;48.132;11.608;2023-04-21T04:17:14;9.60;8.10
827;DHT22;395;48.132;11.608;2023-04-21T04:19:40;9.60;8.20
827;DHT22;395;48.132;11.608;2023-04-21T04:22:05;9.50;8.20
827;DHT22;395;48.132;11.608;2023-04-21T04:24:34;9.50;8.30
827;DHT22;395;48.132;11.608;2023-04-21T04:27:01;9.50;8.50
827;DHT22;395;48.132;11.608;2023-04-21T04:29:28;9.50;8.60
827;DHT22;395;48.132;11.608;2023-04-21T04:31:54;9.50;8.70
827;DHT22;395;48.132;11.608;2023-04-21T04:34:19;9.60;8.80
827;DHT22;395;48.132;11.608;2023-04-21T04:36:45;9.50;8.80
827;DHT22;395;48.132;11.608;2023-04-21T04:39:12;9.50;9.00
827;DHT22;395;48.132;11.608;2023-04-21T04:41:38;9.50;9.00
827;DHT22;395;48.132;11.608;2023-04-21T04:44:04;9.50;9.00
827;DHT22;395;48.132;11.608;2023-04-21T04:46:31;9.50;9.00
827;DHT22;395;48.132;11.608;2023-04-21T04:48:58;9.50;9.10
827;DHT22;395;48.132;11.608;2023-04-21T04:51:24;9.50;9.20
827;DHT22;395;48.132;11.608;2023-04-21T04:53:50;9.40;9.20
827;DHT22;395;48.132;11.608;2023-04-21T04:56:16;9.50;9.20
827;DHT22;395;48.132;11.608;2023-04-21T04:58:41;9.40;9.10
827;DHT22;395;48.132;11.608;2023-04-21T05:01:14;9.50;9.20
827;DHT22;395;48.132;11.608;2023-04-21T05:03:41;9.50;9.20
827;DHT22;395;48.132;11.608;2023-04-21T05:06:06;9.40;9.00
827;DHT22;395;48.132;11.608;2023-04-21T05:08:32;9.50;9.80
827;DHT22;395;48.132;11.608;2023-04-21T05:10:58;9.50;9.20
827;DHT22;395;48.132;11.608;2023-04-21T05:13:24;9.50;9.20
827;DHT22;395;48.132;11.608;2023-04-21T05:15:49;9.40;9.20
827;DHT22;395;48.132;11.608;2023-04-21T05:18:21;9.50;9.30
827;DHT22;395;48.132;11.608;2023-04-21T05:20:47;9.50;9.20
827;DHT22;395;48.132;11.608;2023-04-21T05:23:12;9.50;9.20
827;DHT22;395;48.132;11.608;2023-04-21T05:25:38;9.50;9.10
827;DHT22;395;48.132;11.608;2023-04-21T05:28:04;9.50;9.20
827;DHT22;395;48.132;11.608;2023-04-21T05:30:30;9.50;9.20
827;DHT22;395;48.132;11.608;2023-04-21T05:32:55;9.50;9.20
827;DHT22;395;48.132;11.608;2023-04-21T05:35:21;9.50;9.20
827;DHT22;395;48.132;11.608;2023-04-21T05:37:47;9.60;9.20
827;DHT22;395;48.132;11.608;2023-04-21T05:40:12;9.60;9.00
827;DHT22;395;48.132;11.608;2023-04-21T05:42:38;9.60;8.90
827;DHT22;395;48.132;11.608;2023-04-21T05:45:04;9.60;8.90
827;DHT22;395;48.132;11.608;2023-04-21T05:47:30;9.50;8.80
827;DHT22;395;48.132;11.608;2023-04-21T05:49:55;9.60;8.90
827;DHT22;395;48.132;11.608;2023-04-21T05:52:21;9.70;8.90
827;DHT22;395;48.132;11.608;2023-04-21T05:54:46;9.70;9.10
827;DHT22;395;48.132;11.608;2023-04-21T05:57:12;9.70;9.10
827;DHT22;395;48.132;11.608;2023-04-21T05:59:38;9.70;9.10
827;DHT22;395;48.132;11.608;2023-04-21T06:02:03;9.80;9.10
827;DHT22;395;48.132;11.608;2023-04-21T06:04:29;9.80;9.00
827;DHT22;395;48.132;11.608;2023-04-21T06:06:55;9.90;8.90
827;DHT22;395;48.132;11.608;2023-04-21T06:09:21;9.90;9.40
827;DHT22;395;48.132;11.608;2023-04-21T06:11:46;10.00;8.20
827;DHT22;395;48.132;11.608;2023-04-21T06:14:12;10.00;8.40
827;DHT22;395;48.132;11.608;2023-04-21T06:16:38;10.00;8.30
827;DHT22;395;48.132;11.608;2023-04-21T06:19:03;10.10;8.00
827;DHT22;395;48.132;11.608;2023-04-21T06:21:29;10.20;7.90
827;DHT22;395;48.132;11.608;2023-04-21T06:23:55;10.20;7.70
827;DHT22;395;48.132;11.608;2023-04-21T06:26:20;10.20;8.00
827;DHT22;395;48.132;11.608;2023-04-21T06:28:46;10.30;8.10
827;DHT22;395;48.132;11.608;2023-04-21T06:31:12;10.40;7.80
827;DHT22;395;48.132;11.608;2023-04-21T06:33:40;10.40;7.50
827;DHT22;395;48.132;11.608;2023-04-21T06:36:06;10.50;7.30
827;DHT22;395;48.132;11.608;2023-04-21T06:38:32;10.50;7.10
827;DHT22;395;48.132;11.608;2023-04-21T06:40:58;10.50;6.60
827;DHT22;395;48.132;11.608;2023-04-21T06:43:24;10.60;6.30
827;DHT22;395;48.132;11.608;2023-04-21T06:45:49;10.70;5.90
827;DHT22;395;48.132;11.608;2023-04-21T06:48:15;10.60;5.80
827;DHT22;395;48.132;11.608;2023-04-21T06:50:41;10.60;5.80
827;DHT22;395;48.132;11.608;2023-04-21T06:53:09;10.70;5.80
827;DHT22;395;48.132;11.608;2023-04-21T06:55:36;10.70;5.70
827;DHT22;395;48.132;11.608;2023-04-21T06:58:01;10.80;5.30
827;DHT22;395;48.132;11.608;2023-04-21T07:00:27;10.80;5.00
827;DHT22;395;48.132;11.608;2023-04-21T07:02:53;10.90;4.80
827;DHT22;395;48.132;11.608;2023-04-21T07:05:18;10.90;4.50
827;DHT22;395;48.132;11.608;2023-04-21T07:07:44;10.90;4.40
827;DHT22;395;48.132;11.608;2023-04-21T07:10:10;10.90;4.20
827;DHT22;395;48.132;11.608;2023-04-21T07:12:35;10.90;4.20
827;DHT22;395;48.132;11.608;2023-04-21T07:15:01;11.00;4.30
827;DHT22;395;48.132;11.608;2023-04-21T07:17:27;11.00;4.20
827;DHT22;395;48.132;11.608;2023-04-21T07:19:53;11.00;4.20
827;DHT22;395;48.132;11.608;2023-04-21T07:22:18;11.10;4.30
827;DHT22;395;48.132;11.608;2023-04-21T07:24:44;11.10;4.20
827;DHT22;395;48.132;11.608;2023-04-21T07:27:09;11.10;4.70
827;DHT22;395;48.132;11.608;2023-04-21T07:29:35;11.10;3.90
827;DHT22;395;48.132;11.608;2023-04-21T07:32:01;11.10;3.70
827;DHT22;395;48.132;11.608;2023-04-21T07:34:27;11.20;3.60
827;DHT22;395;48.132;11.608;2023-04-21T07:36:56;11.20;3.40
827;DHT22;395;48.132;11.608;2023-04-21T07:39:21;11.20;3.10
827;DHT22;395;48.132;11.608;2023-04-21T07:41:47;11.30;3.20
827;DHT22;395;48.132;11.608;2023-04-21T07:44:13;11.30;3.20
827;DHT22;395;48.132;11.608;2023-04-21T07:46:38;11.30;3.40
827;DHT22;395;48.132;11.608;2023-04-21T07:49:04;11.30;3.20
827;DHT22;395;48.132;11.608;2023-04-21T07:51:30;11.30;2.90
827;DHT22;395;48.132;11.608;2023-04-21T07:53:56;11.30;2.80
827;DHT22;395;48.132;11.608;2023-04-21T07:56:21;11.40;2.50
827;DHT22;395;48.132;11.608;2023-04-21T07:58:47;11.40;2.40
827;DHT22;395;48.132;11.608;2023-04-21T08:01:13;11.50;2.40
827;DHT22;395;48.132;11.608;2023-04-21T08:03:38;11.50;2.10
827;DHT22;395;48.132;11.608;2023-04-21T08:06:04;11.50;1.90
827;DHT22;395;48.132;11.608;2023-04-21T08:08:30;11.50;2.10
827;DHT22;395;48.132;11.608;2023-04-21T08:10:56;11.50;2.40
827;DHT22;395;48.132;11.608;2023-04-21T08:13:21;11.50;2.40
827;DHT22;395;48.132;11.608;2023-04-21T08:15:50;11.60;1.90
827;DHT22;395;48.132;11.608;2023-04-21T08:18:16;11.60;2.40
827;DHT22;395;48.132;11.608;2023-04-21T08:20:43;11.60;2.60
827;DHT22;395;48.132;11.608;2023-04-21T08:23:09;11.70;2.10
827;DHT22;395;48.132;11.608;2023-04-21T08:25:35;11.70;1.90
827;DHT22;395;48.132;11.608;2023-04-21T08:28:00;11.70;1.00
827;DHT22;395;48.132;11.608;2023-04-21T08:30:27;11.80;1.00
827;DHT22;395;48.132;11.608;2023-04-21T08:32:52;11.80;1.00
827;DHT22;395;48.132;11.608;2023-04-21T08:35:18;11.90;1.00
827;DHT22;395;48.132;11.608;2023-04-21T08:37:44;11.90;1.00
827;DHT22;395;48.132;11.608;2023-04-21T08:40:10;11.90;1.10
827;DHT22;395;48.132;11.608;2023-04-21T08:42:37;12.00;1.00
827;DHT22;395;48.132;11.608;2023-04-21T08:45:04;11.90;1.00
827;DHT22;395;48.132;11.608;2023-04-21T08:47:31;11.90;1.00
827;DHT22;395;48.132;11.608;2023-04-21T08:49:58;11.90;1.00
827;DHT22;395;48.132;11.608;2023-04-21T08:52:24;12.00;1.00
827;DHT22;395;48.132;11.608;2023-04-21T08:54:50;12.00;1.00
827;DHT22;395;48.132;11.608;2023-04-21T08:57:20;12.00;1.00
827;DHT22;395;48.132;11.608;2023-04-21T08:59:46;12.00;1.00
827;DHT22;395;48.132;11.608;2023-04-21T09:02:17;12.00;1.20
827;DHT22;395;48.132;11.608;2023-04-21T09:04:48;12.00;1.30
827;DHT22;395;48.132;11.608;2023-04-21T09:07:36;12.00;1.40
827;DHT22;395;48.132;11.608;2023-04-21T09:10:04;12.00;1.60
827;DHT22;395;48.132;11.608;2023-04-21T09:12:30;12.10;1.70
827;DHT22;395;48.132;11.608;2023-04-21T09:14:56;12.10;2.10
827;DHT22;395;48.132;11.608;2023-04-21T09:17:29;12.00;2.60
827;DHT22;395;48.132;11.608;2023-04-21T09:20:27;12.00;2.30
827;DHT22;395;48.132;11.608;2023-04-21T09:22:53;12.10;2.40
827;DHT22;395;48.132;11.608;2023-04-21T09:25:20;12.10;2.40
827;DHT22;395;48.132;11.608;2023-04-21T09:27:46;12.20;2.30
827;DHT22;395;48.132;11.608;2023-04-21T09:30:12;12.10;2.10
827;DHT22;395;48.132;11.608;2023-04-21T09:32:39;12.10;2.70
827;DHT22;395;48.132;11.608;2023-04-21T09:35:11;12.20;2.70
827;DHT22;395;48.132;11.608;2023-04-21T09:37:38;12.30;2.60
827;DHT22;395;48.132;11.608;2023-04-21T09:40:04;12.30;2.70
827;DHT22;395;48.132;11.608;2023-04-21T09:42:33;12.30;2.60
827;DHT22;395;48.132;11.608;2023-04-21T09:45:00;12.30;2.80
827;DHT22;395;48.132;11.608;2023-04-21T09:47:28;12.30;2.70
827;DHT22;395;48.132;11.608;2023-04-21T09:49:54;12.40;2.60
827;DHT22;395;48.132;11.608;2023-04-21T09:52:20;12.40;2.30
827;DHT22;395;48.132;11.608;2023-04-21T09:54:51;12.40;2.50
827;DHT22;395;48.132;11.608;2023-04-21T09:57:24;12.40;2.30
827;DHT22;395;48.132;11.608;2023-04-21T09:59:59;12.40;2.20
827;DHT22;395;48.132;11.608;2023-04-21T10:02:29;12.40;2.30
827;DHT22;395;48.132;11.608;2023-04-21T10:04:55;12.40;2.80
827;DHT22;395;48.132;11.608;2023-04-21T10:07:20;12.40;3.40
827;DHT22;395;48.132;11.608;2023-04-21T10:09:57;12.40;3.40
827;DHT22;395;48.132;11.608;2023-04-21T10:12:24;12.50;3.10
827;DHT22;395;48.132;11.608;2023-04-21T10:14:52;12.40;3.30
827;DHT22;395;48.132;11.608;2023-04-21T10:17:22;12.50;3.50
827;DHT22;395;48.132;11.608;2023-04-21T10:19:53;12.50;3.20
827;DHT22;395;48.132;11.608;2023-04-21T10:22:34;12.60;3.10
827;DHT22;395;48.132;11.608;2023-04-21T10:25:02;12.60;3.60
827;DHT22;395;48.132;11.608;2023-04-21T10:27:33;12.60;3.80
827;DHT22;395;48.132;11.608;2023-04-21T10:29:59;12.60;4.60
827;DHT22;395;48.132;11.608;2023-04-21T10:33:01;12.60;5.30
827;DHT22;395;48.132;11.608;2023-04-21T10:36:01;12.70;5.40
827;DHT22;395;48.132;11.608;2023-04-21T10:38:42;12.70;5.40
827;DHT22;395;48.132;11.608;2023-04-21T10:41:33;12.80;5.40
827;DHT22;395;48.132;11.608;2023-04-21T10:46:48;12.90;5.50
827;DHT22;395;48.132;11.608;2023-04-21T10:55:03;13.00;6.10
827;DHT22;395;48.132;11.608;2023-04-21T10:57:31;13.00;6.20
827;DHT22;395;48.132;11.608;2023-04-21T10:59:57;13.00;6.50
827;DHT22;395;48.132;11.608;2023-04-21T11:02:23;13.00;7.40
827;DHT22;395;48.132;11.608;2023-04-21T11:04:53;13.10;7.00
827;DHT22;395;48.132;11.608;2023-04-21T11:07:20;13.10;7.00
827;DHT22;395;48.132;11.608;2023-04-21T11:09:47;13.20;7.00
827;DHT22;395;48.132;11.608;2023-04-21T11:12:21;13.10;6.90
827;DHT22;395;48.132;11.608;2023-04-21T11:14:47;13.10;7.40
827;DHT22;395;48.132;11.608;2023-04-21T11:17:15;13.20;7.30
827;DHT22;395;48.132;11.608;2023-04-21T11:19:44;13.20;6.40
827;DHT22;395;48.132;11.608;2023-04-21T11:22:10;13.20;6.00
827;DHT22;395;48.132;11.608;2023-04-21T11:24:35;13.40;5.80
827;DHT22;395;48.132;11.608;2023-04-21T11:27:01;13.40;5.50
827;DHT22;395;48.132;11.608;2023-04-21T11:29:27;13.40;5.50
827;DHT22;395;48.132;11.608;2023-04-21T11:31:56;13.50;5.20
827;DHT22;395;48.132;11.608;2023-04-21T11:34:25;13.60;4.80
827;DHT22;395;48.132;11.608;2023-04-21T11:36:51;13.60;4.60
827;DHT22;395;48.132;11.608;2023-04-21T11:39:20;13.70;4.50
827;DHT22;395;48.132;11.608;2023-04-21T11:41:48;13.70;3.80
827;DHT22;395;48.132;11.608;2023-04-21T11:44:30;13.80;3.90
827;DHT22;395;48.132;11.608;2023-04-21T11:46:56;13.70;4.00
827;DHT22;395;48.132;11.608;2023-04-21T11:49:24;13.80;3.60
827;DHT22;395;48.132;11.608;2023-04-21T11:51:50;13.80;3.50
827;DHT22;395;48.132;11.608;2023-04-21T11:54:17;13.80;3.80
827;DHT22;395;48.132;11.608;2023-04-21T11:56:45;13.90;4.50
827;DHT22;395;48.132;11.608;2023-04-21T11:59:18;13.80;4.30
827;DHT22;395;48.132;11.608;2023-04-21T12:01:49;14.00;4.00
827;DHT22;395;48.132;11.608;2023-04-21T12:04:20;14.00;1.80
827;DHT22;395;48.132;11.608;2023-04-21T12:06:55;14.10;1.00
827;DHT22;395;48.132;11.608;2023-04-21T12:09:21;14.10;1.00
827;DHT22;395;48.132;11.608;2023-04-21T12:11:57;14.10;1.00
827;DHT22;395;48.132;11.608;2023-04-21T12:14:24;14.10;1.00
827;DHT22;395;48.132;11.608;2023-04-21T12:16:54;14.20;1.00
827;DHT22;395;48.132;11.608;2023-04-21T12:19:37;14.10;1.40
827;DHT22;395;48.132;11.608;2023-04-21T12:22:11;14.30;1.00
827;DHT22;395;48.132;11.608;2023-04-21T12:24:38;14.40;1.00
827;DHT22;395;48.132;11.608;2023-04-21T12:27:04;14.30;1.00
827;DHT22;395;48.132;11.608;2023-04-21T12:29:30;14.40;1.00
827;DHT22;395;48.132;11.608;2023-04-21T12:31:56;14.40;1.00
827;DHT22;395;48.132;11.608;2023-04-21T12:34:22;14.30;1.00
827;DHT22;395;48.132;11.608;2023-04-21T12:36:48;14.40;1.00
827;DHT22;395;48.132;11.608;2023-04-21T12:39:14;14.20;1.00
827;DHT22;395;48.132;11.608;2023-04-21T12:41:41;14.30;1.00
827;DHT22;395;48.132;11.608;2023-04-21T12:44:07;14.50;1.00
827;DHT22;395;48.132;11.608;2023-04-21T12:46:33;14.60;1.00
827;DHT22;395;48.132;11.608;2023-04-21T12:48:58;14.70;1.00
827;DHT22;395;48.132;11.608;2023-04-21T12:51:24;14.60;1.00
827;DHT22;395;48.132;11.608;2023-04-21T12:53:50;14.70;1.00
827;DHT22;395;48.132;11.608;2023-04-21T12:56:17;14.80;1.00
827;DHT22;395;48.132;11.608;2023-04-21T12:58:43;14.70;1.00
827;DHT22;395;48.132;11.608;2023-04-21T13:01:08;14.80;1.00
827;DHT22;395;48.132;11.608;2023-04-21T13:03:34;14.80;1.00
827;DHT22;395;48.132;11.608;2023-04-21T13:06:01;14.80;1.00
827;DHT22;395;48.132;11.608;2023-04-21T13:08:27;14.90;1.00
827;DHT22;395;48.132;11.608;2023-04-21T13:10:52;15.00;1.00
827;DHT22;395;48.132;11.608;2023-04-21T13:13:18;15.20;1.00
827;DHT22;395;48.132;11.608;2023-04-21T13:15:45;15.30;1.00
827;DHT22;395;48.132;11.608;2023-04-21T13:18:10;15.30;1.00
827;DHT22;395;48.132;11.608;2023-04-21T13:20:36;15.30;1.00
827;DHT22;395;48.132;11.608;2023-04-21T13:23:01;15.50;1.00
827;DHT22;395;48.132;11.608;2023-04-21T13:25:27;15.60;1.00
827;DHT22;395;48.132;11.608;2023-04-21T13:27:53;15.50;1.00
827;DHT22;395;48.132;11.608;2023-04-21T13:30:18;15.70;1.00
827;DHT22;395;48.132;11.608;2023-04-21T13:32:44;15.90;1.00
827;DHT22;395;48.132;11.608;2023-04-21T13:35:10;16.10;1.00
827;DHT22;395;48.132;11.608;2023-04-21T13:37:36;16.20;1.00
827;DHT22;395;48.132;11.608;2023-04-21T13:40:03;16.30;1.00
827;DHT22;395;48.132;11.608;2023-04-21T13:42:30;16.40;1.00
827;DHT22;395;48.132;11.608;2023-04-21T13:44:56;16.40;1.00
827;DHT22;395;48.132;11.608;2023-04-21T13:47:22;16.50;1.00
827;DHT22;395;48.132;11.608;2023-04-21T13:49:48;16.60;1.00
827;DHT22;395;48.132;11.608;2023-04-21T13:52:16;16.80;1.00
827;DHT22;395;48.132;11.608;2023-04-21T13:54:41;16.90;1.00
827;DHT22;395;48.132;11.608;2023-04-21T13:57:07;16.90;1.00
827;DHT22;395;48.132;11.608;2023-04-21T13:59:33;17.00;1.00
827;DHT22;395;48.132;11.608;2023-04-21T14:01:59;17.10;1.00
827;DHT22;395;48.132;11.608;2023-04-21T14:04:25;17.10;1.00
827;DHT22;395;48.132;11.608;2023-04-21T14:06:50;17.20;1.00
827;DHT22;395;48.132;11.608;2023-04-21T14:09:16;17.30;1.00
827;DHT22;395;48.132;11.608;2023-04-21T14:11:42;17.30;1.00
827;DHT22;395;48.132;11.608;2023-04-21T14:14:08;17.40;1.00
827;DHT22;395;48.132;11.608;2023-04-21T14:16:33;17.30;1.00
827;DHT22;395;48.132;11.608;2023-04-21T14:19:00;17.50;1.00
827;DHT22;395;48.132;11.608;2023-04-21T14:21:26;17.50;1.00
827;DHT22;395;48.132;11.608;2023-04-21T14:23:51;17.60;1.00
827;DHT22;395;48.132;11.608;2023-04-21T14:26:17;17.60;1.00
827;DHT22;395;48.132;11.608;2023-04-21T14:28:43;17.70;1.00
827;DHT22;395;48.132;11.608;2023-04-21T14:31:09;17.80;1.00
827;DHT22;395;48.132;11.608;2023-04-21T14:33:34;17.90;1.00
827;DHT22;395;48.132;11.608;2023-04-21T14:36:00;17.90;1.00
827;DHT22;395;48.132;11.608;2023-04-21T14:38:26;17.90;1.00
827;DHT22;395;48.132;11.608;2023-04-21T14:40:53;18.00;1.00
827;DHT22;395;48.132;11.608;2023-04-21T14:43:20;18.00;1.00
827;DHT22;395;48.132;11.608;2023-04-21T14:45:46;18.10;1.00
827;DHT22;395;48.132;11.608;2023-04-21T14:48:12;18.10;1.00
827;DHT22;395;48.132;11.608;2023-04-21T14:50:39;18.20;1.00
827;DHT22;395;48.132;11.608;2023-04-21T14:53:05;18.30;1.00
827;DHT22;395;48.132;11.608;2023-04-21T14:55:31;18.30;1.00
827;DHT22;395;48.132;11.608;2023-04-21T14:57:57;18.50;1.00
827;DHT22;395;48.132;11.608;2023-04-21T15:00:23;18.50;1.00
827;DHT22;395;48.132;11.608;2023-04-21T15:02:49;18.50;1.00
827;DHT22;395;48.132;11.608;2023-04-21T15:05:14;18.60;1.00
827;DHT22;395;48.132;11.608;2023-04-21T15:07:40;18.70;1.00
827;DHT22;395;48.132;11.608;2023-04-21T15:10:07;18.60;1.00
827;DHT22;395;48.132;11.608;2023-04-21T15:12:33;18.60;1.00
827;DHT22;395;48.132;11.608;2023-04-21T15:14:58;18.60;1.00
827;DHT22;395;48.132;11.608;2023-04-21T15:17:24;18.70;1.00
827;DHT22;395;48.132;11.608;2023-04-21T15:19:50;18.60;1.00
827;DHT22;395;48.132;11.608;2023-04-21T15:22:16;18.70;1.00
827;DHT22;395;48.132;11.608;2023-04-21T15:24:41;18.80;1.00
827;DHT22;395;48.132;11.608;2023-04-21T15:27:07;18.80;1.00
827;DHT22;395;48.132;11.608;2023-04-21T15:29:33;18.80;1.00
827;DHT22;395;48.132;11.608;2023-04-21T15:31:59;19.00;1.00
827;DHT22;395;48.132;11.608;2023-04-21T15:34:24;19.00;1.00
827;DHT22;395;48.132;11.608;2023-04-21T15:36:50;19.00;1.00
827;DHT22;395;48.132;11.608;2023-04-21T15:39:16;19.10;1.00
827;DHT22;395;48.132;11.608;2023-04-21T15:41:41;19.10;1.00
827;DHT22;395;48.132;11.608;2023-04-21T15:44:07;19.10;1.00
827;DHT22;395;48.132;11.608;2023-04-21T15:46:33;19.20;1.00
827;DHT22;395;48.132;11.608;2023-04-21T15:49:01;19.20;1.00
827;DHT22;395;48.132;11.608;2023-04-21T15:51:27;19.30;1.00
827;DHT22;395;48.132;11.608;2023-04-21T15:53:52;19.30;1.00
827;DHT22;395;48.132;11.608;2023-04-21T15:56:18;19.30;1.00
827;DHT22;395;48.132;11.608;2023-04-21T15:58:44;19.40;1.00
827;DHT22;395;48.132;11.608;2023-04-21T16:01:10;19.30;1.00
827;DHT22;395;48.132;11.608;2023-04-21T16:03:35;19.30;1.00
827;DHT22;395;48.132;11.608;2023-04-21T16:06:01;19.40;1.00
827;DHT22;395;48.132;11.608;2023-04-21T16:08:27;19.50;1.00
827;DHT22;395;48.132;11.608;2023-04-21T16:10:53;19.50;1.00
827;DHT22;395;48.132;11.608;2023-04-21T16:13:18;19.40;1.00
827;DHT22;395;48.132;11.608;2023-04-21T16:15:44;19.40;1.00
827;DHT22;395;48.132;11.608;2023-04-21T16:18:10;19.10;1.00
827;DHT22;395;48.132;11.608;2023-04-21T16:20:36;19.10;1.00
827;DHT22;395;48.132;11.608;2023-04-21T16:23:02;18.90;1.00
827;DHT22;395;48.132;11.608;2023-04-21T16:25:30;18.90;1.00
827;DHT22;395;48.132;11.608;2023-04-21T16:27:57;18.90;1.00
827;DHT22;395;48.132;11.608;2023-04-21T16:30:23;18.80;1.00
827;DHT22;395;48.132;11.608;2023-04-21T16:32:48;18.80;1.00
827;DHT22;395;48.132;11.608;2023-04-21T16:35:14;18.60;1.00
827;DHT22;395;48.132;11.608;2023-04-21T16:37:40;18.60;1.00
827;DHT22;395;48.132;11.608;2023-04-21T16:40:08;18.50;1.00
827;DHT22;395;48.132;11.608;2023-04-21T16:42:34;18.40;1.00
827;DHT22;395;48.132;11.608;2023-04-21T16:45:00;18.30;1.00
827;DHT22;395;48.132;11.608;2023-04-21T16:47:29;18.30;1.00